Time;durP1;ratioP1;P1;durP2;ratioP2;P2;SDS_P1;SDS_P2;PMS_P1;PMS_P2;Temp;Humidity;BMP_temperature;BMP_pressure;BME280_temperature;BME280_humidity;BME280_pressure;Samples;Min_cycle;Max_cycle;Signal;HPM_P1;HPM_P2
2023/11/09 00:00:23;;;;;;;0.15;0.15;;;;;;;1.21;100.00;95551.28;1031021;28;20208;-73
2023/11/09 00:00:54;;;;;;;1.48;0.57;;;;;;;1.17;100.00;95550.91;1038557;28;20276;-71
2023/11/09 00:01:24;;;;;;;0.25;0.25;;;;;;;1.18;100.00;95547.34;1034561;28;20034;-72
2023/11/09 00:01:55;;;;;;;1.85;0.93;;;;;;;1.15;100.00;95553.72;1031209;28;20037;-73
2023/11/09 00:02:25;;;;;;;0.47;0.30;;;;;;;1.12;100.00;95556.72;1034789;28;20148;-71
2023/11/09 00:02:56;;;;;;;0.45;0.45;;;;;;;1.09;100.00;95554.53;1030698;28;20038;-72
2023/11/09 00:03:26;;;;;;;0.28;0.28;;;;;;;1.11;100.00;95546.59;1035027;28;20041;-73
2023/11/09 00:03:57;;;;;;;0.95;0.90;;;;;;;1.07;100.00;95548.78;1043116;28;20424;-73
2023/11/09 00:04:27;;;;;;;2.45;2.00;;;;;;;1.05;100.00;95553.38;1043069;28;20412;-73
2023/11/09 00:04:57;;;;;;;0.22;0.22;;;;;;;1.00;100.00;95536.91;1037534;28;20087;-71
2023/11/09 00:05:28;;;;;;;0.00;0.00;;;;;;;0.94;100.00;95531.56;1030895;28;20042;-71
2023/11/09 00:05:58;;;;;;;0.40;0.40;;;;;;;1.00;100.00;95545.44;1026864;28;20030;-73
2023/11/09 00:06:29;;;;;;;0.28;0.28;;;;;;;0.92;100.00;95527.59;1030778;28;20030;-72
2023/11/09 00:06:59;;;;;;;1.00;1.00;;;;;;;1.01;100.00;95544.47;1030747;28;20026;-72
2023/11/09 00:07:32;;;;;;;0.45;0.45;;;;;;;1.02;100.00;95537.50;1030925;28;20034;-73
2023/11/09 00:08:03;;;;;;;0.10;0.10;;;;;;;1.03;100.00;95542.44;1030719;28;20453;-72
2023/11/09 00:08:33;;;;;;;0.82;0.82;;;;;;;1.10;100.00;95542.41;1030538;28;20273;-71
2023/11/09 00:09:04;;;;;;;0.93;0.93;;;;;;;1.09;100.00;95540.81;1031726;28;20056;-73
2023/11/09 00:09:35;;;;;;;0.10;0.10;;;;;;;1.00;100.00;95529.16;1039107;28;20845;-73
2023/11/09 00:10:06;;;;;;;0.50;0.50;;;;;;;1.03;100.00;95529.53;1038866;28;20045;-70
2023/11/09 00:10:37;;;;;;;0.17;0.17;;;;;;;0.99;100.00;95517.25;1038248;28;20025;-73
2023/11/09 00:11:08;;;;;;;0.00;0.00;;;;;;;1.13;100.00;95539.41;1030723;28;20352;-70
2023/11/09 00:11:38;;;;;;;0.25;0.25;;;;;;;1.15;100.00;95542.59;1030445;28;20060;-73
2023/11/09 00:12:10;;;;;;;3.25;0.55;;;;;;;1.16;100.00;95544.16;1030852;28;20269;-73
2023/11/09 00:12:42;;;;;;;0.57;0.35;;;;;;;1.15;100.00;95540.00;1031757;28;20053;-72
2023/11/09 00:13:13;;;;;;;0.45;0.40;;;;;;;1.16;100.00;95534.63;1031306;28;20896;-73
2023/11/09 00:13:44;;;;;;;0.10;0.10;;;;;;;1.11;100.00;95531.09;1030638;28;20285;-71
2023/11/09 00:14:17;;;;;;;0.63;0.63;;;;;;;1.14;100.00;95534.06;1027167;28;20034;-74
2023/11/09 00:14:48;;;;;;;0.22;0.22;;;;;;;1.08;100.00;95534.09;1027760;28;20023;-73
2023/11/09 00:15:20;;;;;;;0.40;0.40;;;;;;;1.11;100.00;95539.63;1031753;28;20942;-72
2023/11/09 00:15:50;;;;;;;0.38;0.38;;;;;;;1.10;100.00;95538.03;1030924;28;20034;-72
2023/11/09 00:16:21;;;;;;;0.17;0.17;;;;;;;1.10;100.00;95538.03;1030777;28;20300;-73
2023/11/09 00:16:51;;;;;;;0.30;0.30;;;;;;;1.08;100.00;95547.78;1030464;28;20058;-73
2023/11/09 00:17:22;;;;;;;0.10;0.10;;;;;;;1.07;100.00;95541.03;1030178;28;20067;-72
2023/11/09 00:17:53;;;;;;;0.88;0.88;;;;;;;1.03;100.00;95537.28;1035066;28;20059;-72
2023/11/09 00:18:23;;;;;;;0.57;0.57;;;;;;;1.03;100.00;95541.66;1030813;28;20029;-73
2023/11/09 00:18:54;;;;;;;0.47;0.47;;;;;;;1.03;100.00;95541.66;1026709;28;20537;-71
2023/11/09 00:19:25;;;;;;;0.38;0.38;;;;;;;1.04;100.00;95538.06;1034832;28;20041;-72
2023/11/09 00:19:55;;;;;;;0.40;0.40;;;;;;;1.06;100.00;95536.88;1030795;28;20284;-72
2023/11/09 00:20:27;;;;;;;0.52;0.52;;;;;;;1.04;100.00;95540.66;1030614;28;20038;-71
2023/11/09 00:20:58;;;;;;;0.63;0.63;;;;;;;0.94;100.00;95528.22;1029890;28;20030;-72
2023/11/09 00:21:28;;;;;;;1.88;0.70;;;;;;;0.99;100.00;95533.53;1038917;28;20308;-71
2023/11/09 00:21:59;;;;;;;0.10;0.10;;;;;;;1.00;100.00;95535.09;1034899;28;20030;-71
2023/11/09 00:22:29;;;;;;;0.10;0.10;;;;;;;1.00;100.00;95535.09;1039144;28;20469;-73
2023/11/09 00:22:59;;;;;;;2.25;2.05;;;;;;;0.94;100.00;95525.63;1038799;28;20022;-72
2023/11/09 00:23:31;;;;;;;1.55;0.63;;;;;;;0.97;100.00;95535.50;1039004;28;20029;-73
2023/11/09 00:24:03;;;;;;;3.40;2.00;;;;;;;0.90;100.00;95524.44;1030761;28;20061;-73
2023/11/09 00:24:33;;;;;;;1.58;0.75;;;;;;;0.91;100.00;95533.78;1026841;28;20780;-72
2023/11/09 00:25:04;;;;;;;0.30;0.30;;;;;;;0.83;100.00;95521.88;1027199;28;20338;-72
2023/11/09 00:25:35;;;;;;;0.38;0.35;;;;;;;0.89;100.00;95535.78;1031820;28;20041;-73
2023/11/09 00:26:06;;;;;;;0.80;0.80;;;;;;;0.90;100.00;95527.00;1035800;28;20108;-71
2023/11/09 00:26:38;;;;;;;0.10;0.10;;;;;;;0.89;100.00;95533.19;1038893;28;20420;-71
2023/11/09 00:27:19;;;;;;;2.63;0.80;;;;;;;0.81;100.00;95520.53;1034722;28;20807;-74
2023/11/09 00:27:50;;;;;;;4.75;0.38;;;;;;;0.80;100.00;95524.09;1031053;28;20280;-73
2023/11/09 00:28:20;;;;;;;0.30;0.30;;;;;;;0.84;100.00;95530.41;1031131;28;20269;-74
2023/11/09 00:28:50;;;;;;;0.00;0.00;;;;;;;0.80;100.00;95521.50;1030928;28;20112;-73
2023/11/09 00:29:21;;;;;;;0.00;0.00;;;;;;;0.82;100.00;95533.22;1031581;28;20022;-72
2023/11/09 00:29:51;;;;;;;0.10;0.10;;;;;;;0.80;100.00;95535.22;1039255;28;20017;-72
2023/11/09 00:30:22;;;;;;;0.70;0.52;;;;;;;0.82;100.00;95528.06;1042943;28;20025;-72
2023/11/09 00:30:52;;;;;;;0.13;0.13;;;;;;;0.72;100.00;95521.75;1042528;28;20025;-71
2023/11/09 00:31:23;;;;;;;0.32;0.32;;;;;;;0.77;100.00;95532.25;1042890;28;20040;-73
2023/11/09 00:31:53;;;;;;;0.90;0.80;;;;;;;0.73;100.00;95533.66;1047222;28;20515;-74
2023/11/09 00:32:24;;;;;;;0.20;0.20;;;;;;;0.73;100.00;95531.06;1038813;28;20484;-72
2023/11/09 00:32:54;;;;;;;0.00;0.00;;;;;;;0.69;100.00;95528.91;1034877;28;20911;-74
2023/11/09 00:33:25;;;;;;;4.30;0.63;;;;;;;0.70;100.00;95533.09;1034790;28;20026;-72
2023/11/09 00:33:55;;;;;;;1.00;0.95;;;;;;;0.67;100.00;95519.78;1034731;28;20030;-72
2023/11/09 00:34:26;;;;;;;0.17;0.17;;;;;;;0.67;100.00;95525.75;1035056;28;20037;-73
2023/11/09 00:34:56;;;;;;;0.15;0.15;;;;;;;0.74;100.00;95527.50;1030761;28;20035;-72
2023/11/09 00:35:29;;;;;;;0.45;0.45;;;;;;;0.75;100.00;95529.09;1034646;28;20030;-74
2023/11/09 00:36:00;;;;;;;0.40;0.40;;;;;;;0.73;100.00;95529.28;1035246;28;20527;-74
2023/11/09 00:36:31;;;;;;;0.32;0.32;;;;;;;0.74;100.00;95528.31;1035573;28;20026;-74
2023/11/09 00:37:02;;;;;;;0.08;0.08;;;;;;;0.72;100.00;95524.34;1038742;28;20021;-73
2023/11/09 00:37:33;;;;;;;0.13;0.13;;;;;;;0.70;100.00;95520.19;1038901;28;20029;-72
2023/11/09 00:38:05;;;;;;;2.38;0.30;;;;;;;0.66;100.00;95524.16;1038771;28;20037;-73
2023/11/09 00:38:37;;;;;;;0.84;0.84;;;;;;;0.61;100.00;95520.63;1039254;28;20027;-73
2023/11/09 00:39:11;;;;;;;0.10;0.10;;;;;;;0.59;100.00;95518.22;1038734;28;20033;-72
2023/11/09 00:39:41;;;;;;;0.75;0.75;;;;;;;0.70;100.00;95527.94;1036573;28;20299;-73
2023/11/09 00:40:12;;;;;;;0.38;0.30;;;;;;;0.69;100.00;95534.06;1042900;28;20271;-74
2023/11/09 00:40:43;;;;;;;0.20;0.20;;;;;;;0.72;100.00;95537.25;1036523;28;20037;-73
2023/11/09 00:41:14;;;;;;;0.65;0.65;;;;;;;0.63;100.00;95524.56;1035477;28;20034;-73
2023/11/09 00:41:45;;;;;;;1.55;1.45;;;;;;;0.74;100.00;95537.81;1038457;28;20044;-72
2023/11/09 00:42:15;;;;;;;0.30;0.30;;;;;;;0.66;100.00;95524.16;1030604;28;20281;-75
2023/11/09 00:42:45;;;;;;;1.20;0.30;;;;;;;0.72;100.00;95537.25;1035177;28;20038;-72
2023/11/09 00:43:16;;;;;;;0.15;0.15;;;;;;;0.74;100.00;95536.06;1030809;28;20034;-70
2023/11/09 00:43:46;;;;;;;0.10;0.10;;;;;;;0.71;100.00;95528.72;1038946;28;20041;-73
2023/11/09 00:44:17;;;;;;;0.00;0.00;;;;;;;0.73;100.00;95537.03;1042659;28;20033;-73
2023/11/09 00:44:48;;;;;;;0.00;0.00;;;;;;;0.70;100.00;95525.34;1037861;28;20045;-73
2023/11/09 00:45:18;;;;;;;0.00;0.00;;;;;;;0.74;100.00;95536.06;1042910;28;20614;-72
2023/11/09 00:45:49;;;;;;;0.90;0.90;;;;;;;0.77;100.00;95529.66;1038629;28;20103;-74
2023/11/09 00:46:19;;;;;;;0.00;0.00;;;;;;;0.77;100.00;95530.47;1030488;28;20037;-74
2023/11/09 00:46:50;;;;;;;0.82;0.82;;;;;;;0.73;100.00;95523.34;1022724;29;20023;-74
2023/11/09 00:47:21;;;;;;;3.20;0.75;;;;;;;0.74;100.00;95525.72;1026747;28;20027;-74
2023/11/09 00:47:52;;;;;;;0.32;0.32;;;;;;;0.75;100.00;95527.31;1030755;28;20034;-74
2023/11/09 00:48:22;;;;;;;0.00;0.00;;;;;;;0.76;100.00;95530.66;1026559;28;20262;-73
2023/11/09 00:48:53;;;;;;;0.05;0.05;;;;;;;0.79;100.00;95532.84;1030794;28;20042;-73
2023/11/09 00:49:23;;;;;;;0.40;0.40;;;;;;;0.61;100.00;95505.13;1030404;28;20037;-72
2023/11/09 00:49:53;;;;;;;0.00;0.00;;;;;;;0.78;100.00;95526.09;1030665;28;20065;-74
2023/11/09 00:50:24;;;;;;;0.40;0.40;;;;;;;0.75;100.00;95526.50;1030506;28;20030;-73
2023/11/09 00:50:54;;;;;;;0.05;0.05;;;;;;;0.80;100.00;95529.25;1026133;28;20089;-73
2023/11/09 00:51:25;;;;;;;0.80;0.80;;;;;;;0.77;100.00;95533.06;1026525;28;20817;-69
2023/11/09 00:51:55;;;;;;;0.32;0.32;;;;;;;0.78;100.00;95533.84;1030378;28;20030;-73
2023/11/09 00:52:26;;;;;;;0.00;0.00;;;;;;;0.78;100.00;95528.69;1034547;28;20033;-72
2023/11/09 00:52:57;;;;;;;0.40;0.40;;;;;;;0.81;100.00;95530.84;1034763;28;20021;-72
2023/11/09 00:53:27;;;;;;;0.00;0.00;;;;;;;0.83;100.00;95528.84;1038937;28;20017;-73
2023/11/09 00:53:58;;;;;;;0.35;0.35;;;;;;;0.78;100.00;95515.78;1042920;28;20032;-74
2023/11/09 00:54:28;;;;;;;0.45;0.45;;;;;;;0.76;100.00;95508.22;1030501;28;20026;-71
2023/11/09 00:54:59;;;;;;;0.55;0.55;;;;;;;0.85;100.00;95525.06;1026680;28;20034;-71
2023/11/09 00:55:29;;;;;;;0.45;0.20;;;;;;;0.84;100.00;95525.25;1024938;28;20668;-73
2023/11/09 00:56:00;;;;;;;0.22;0.22;;;;;;;0.82;100.00;95528.06;1030325;28;20465;-74
2023/11/09 00:56:30;;;;;;;0.05;0.05;;;;;;;0.82;100.00;95530.63;1026759;28;20022;-73
2023/11/09 00:57:01;;;;;;;0.00;0.00;;;;;;;0.81;100.00;95528.28;1034770;28;20025;-73
2023/11/09 00:57:32;;;;;;;0.20;0.20;;;;;;;0.73;100.00;95521.53;1038749;28;20072;-73
2023/11/09 00:58:02;;;;;;;2.18;1.50;;;;;;;0.73;100.00;95513.00;1042730;28;20025;-72
2023/11/09 00:58:33;;;;;;;0.50;0.50;;;;;;;0.74;100.00;95517.97;1038369;28;20472;-72
2023/11/09 00:59:04;;;;;;;0.43;0.43;;;;;;;0.77;100.00;95521.91;1030652;28;20037;-74
2023/11/09 00:59:34;;;;;;;0.35;0.35;;;;;;;0.74;100.00;95523.13;1026864;28;20126;-71
2023/11/09 01:00:06;;;;;;;3.53;1.17;;;;;;;0.75;100.00;95511.03;1026646;28;20015;-73
2023/11/09 01:00:37;;;;;;;0.43;0.43;;;;;;;0.74;100.00;95514.56;1026064;28;20035;-74
2023/11/09 01:01:07;;;;;;;0.50;0.50;;;;;;;0.65;100.00;95504.50;1030731;28;20266;-72
2023/11/09 01:01:37;;;;;;;0.05;0.05;;;;;;;0.65;100.00;95503.72;1030288;28;20019;-72
2023/11/09 01:02:08;;;;;;;1.00;1.00;;;;;;;0.75;100.00;95519.56;1034762;28;20018;-73
2023/11/09 01:02:39;;;;;;;0.15;0.15;;;;;;;0.72;100.00;95521.75;1034561;28;20022;-74
2023/11/09 01:03:09;;;;;;;0.72;0.68;;;;;;;0.69;100.00;95521.16;1034812;28;20102;-73
2023/11/09 01:03:40;;;;;;;0.10;0.10;;;;;;;0.67;100.00;95525.75;1035105;28;20030;-73
2023/11/09 01:04:10;;;;;;;0.20;0.20;;;;;;;0.68;100.00;95527.31;1038889;28;20022;-74
2023/11/09 01:04:41;;;;;;;0.10;0.10;;;;;;;0.69;100.00;95521.16;1034448;28;20030;-73
2023/11/09 01:05:11;;;;;;;0.32;0.32;;;;;;;0.69;100.00;95520.38;1034767;28;20018;-72
2023/11/09 01:05:42;;;;;;;0.10;0.10;;;;;;;0.69;100.00;95521.16;1042952;28;20065;-73
2023/11/09 01:06:12;;;;;;;0.10;0.10;;;;;;;0.68;100.00;95522.16;1038729;28;20025;-74
2023/11/09 01:06:43;;;;;;;0.25;0.25;;;;;;;0.75;100.00;95526.50;1030277;28;20129;-74
2023/11/09 01:07:13;;;;;;;2.20;0.85;;;;;;;0.80;100.00;95519.72;1026590;28;20740;-71
2023/11/09 01:07:44;;;;;;;0.47;0.47;;;;;;;0.82;100.00;95522.88;1030613;28;20034;-74
2023/11/09 01:08:15;;;;;;;0.05;0.05;;;;;;;0.77;100.00;95514.97;1030688;28;20974;-74
2023/11/09 01:08:45;;;;;;;0.15;0.15;;;;;;;0.84;100.00;95520.09;1038549;28;20029;-73
2023/11/09 01:09:17;;;;;;;0.82;0.82;;;;;;;0.82;100.00;95516.94;1030855;28;20031;-73
2023/11/09 01:09:47;;;;;;;0.20;0.20;;;;;;;0.81;100.00;95518.72;1034649;28;20039;-73
2023/11/09 01:10:18;;;;;;;0.20;0.20;;;;;;;0.81;100.00;95520.53;1034917;28;20018;-73
2023/11/09 01:10:48;;;;;;;0.00;0.00;;;;;;;0.84;100.00;95520.09;1033919;28;20398;-74
2023/11/09 01:11:25;;;;;;;0.25;0.25;;;;;;;0.87;100.00;95519.69;1034530;28;20080;-73
2023/11/09 01:11:55;;;;;;;0.04;0.04;;;;;;;0.87;100.00;95514.50;1034469;28;20105;-72
2023/11/09 01:12:27;;;;;;;0.57;0.52;;;;;;;0.91;100.00;95516.50;1034659;28;20501;-73
2023/11/09 01:12:57;;;;;;;0.24;0.24;;;;;;;0.92;100.00;95518.06;1035123;28;20022;-73
2023/11/09 01:13:28;;;;;;;0.20;0.20;;;;;;;0.97;100.00;95520.03;1034184;28;20037;-73
2023/11/09 01:13:58;;;;;;;0.68;0.60;;;;;;;0.91;100.00;95500.22;1035227;28;20038;-72
2023/11/09 01:14:29;;;;;;;0.08;0.08;;;;;;;1.01;100.00;95516.03;1034677;28;20394;-72
2023/11/09 01:15:01;;;;;;;0.40;0.40;;;;;;;1.00;100.00;95519.59;1030445;28;20390;-73
2023/11/09 01:15:32;;;;;;;0.00;0.00;;;;;;;0.99;100.00;95510.28;1026677;28;20041;-73
2023/11/09 01:16:02;;;;;;;0.20;0.20;;;;;;;0.98;100.00;95503.53;1023648;28;20466;-73
2023/11/09 01:16:33;;;;;;;1.67;1.38;;;;;;;1.03;100.00;95514.03;1022750;28;20023;-71
2023/11/09 01:17:03;;;;;;;0.17;0.17;;;;;;;1.02;100.00;95517.63;1028700;28;20023;-72
2023/11/09 01:17:41;;;;;;;0.10;0.10;;;;;;;0.96;100.00;95513.28;1030578;28;20022;-73
2023/11/09 01:18:11;;;;;;;0.20;0.20;;;;;;;1.01;100.00;95515.25;1018623;29;20035;-72
2023/11/09 01:18:41;;;;;;;0.28;0.28;;;;;;;1.00;100.00;95514.44;1026692;28;20648;-73
2023/11/09 01:19:12;;;;;;;0.30;0.30;;;;;;;1.02;100.00;95512.44;1031344;28;20030;-73
2023/11/09 01:19:43;;;;;;;0.15;0.15;;;;;;;1.02;100.00;95512.44;1031273;28;20575;-72
2023/11/09 01:20:13;;;;;;;0.80;0.43;;;;;;;1.00;100.00;95511.06;1034387;28;20044;-72
2023/11/09 01:20:44;;;;;;;1.90;1.13;;;;;;;1.02;100.00;95509.88;1026069;28;20043;-71
2023/11/09 01:21:14;;;;;;;0.15;0.15;;;;;;;1.01;100.00;95505.72;1034283;28;20029;-74
2023/11/09 01:21:45;;;;;;;0.10;0.10;;;;;;;1.06;100.00;95511.03;1026430;28;20027;-73
2023/11/09 01:22:16;;;;;;;0.00;0.00;;;;;;;1.07;100.00;95504.84;1030393;28;20121;-73
2023/11/09 01:22:47;;;;;;;0.00;0.00;;;;;;;1.06;100.00;95510.25;1030819;28;20261;-72
2023/11/09 01:23:18;;;;;;;0.20;0.20;;;;;;;1.05;100.00;95506.88;1030882;28;20517;-73
2023/11/09 01:23:49;;;;;;;0.03;0.03;;;;;;;1.04;100.00;95507.88;1032569;28;20097;-72
2023/11/09 01:24:19;;;;;;;0.10;0.10;;;;;;;1.05;100.00;95501.69;1038634;28;20272;-71
2023/11/09 01:24:50;;;;;;;0.13;0.13;;;;;;;0.96;100.00;95487.44;1030703;28;20089;-73
2023/11/09 01:25:20;;;;;;;0.00;0.00;;;;;;;1.06;100.00;95507.66;1027387;28;20030;-73
2023/11/09 01:25:50;;;;;;;0.43;0.43;;;;;;;1.03;100.00;95498.53;1030457;28;20049;-73
2023/11/09 01:26:21;;;;;;;0.22;0.22;;;;;;;1.03;100.00;95501.09;1030545;28;20030;-72
2023/11/09 01:26:51;;;;;;;0.10;0.10;;;;;;;0.99;100.00;95487.03;1034822;28;20572;-73
2023/11/09 01:27:22;;;;;;;0.30;0.28;;;;;;;1.04;100.00;95500.13;1034519;28;20103;-73
2023/11/09 01:27:52;;;;;;;0.75;0.75;;;;;;;0.95;100.00;95483.28;1038712;28;20084;-72
2023/11/09 01:28:23;;;;;;;0.10;0.10;;;;;;;1.01;100.00;95499.75;1034450;28;20022;-71
2023/11/09 01:28:53;;;;;;;0.00;0.00;;;;;;;1.01;100.00;95500.53;1030559;28;20098;-71
2023/11/09 01:29:24;;;;;;;0.60;0.60;;;;;;;0.99;100.00;95497.38;1026409;28;20034;-72
2023/11/09 01:29:54;;;;;;;0.20;0.20;;;;;;;1.03;100.00;95488.19;1026674;28;20066;-75
2023/11/09 01:30:25;;;;;;;0.95;0.68;;;;;;;1.05;100.00;95491.38;1038458;28;20024;-73
2023/11/09 01:30:55;;;;;;;0.00;0.00;;;;;;;1.05;100.00;95493.16;1034299;28;20088;-72
2023/11/09 01:31:26;;;;;;;2.00;0.65;;;;;;;0.97;100.00;95470.94;1038722;28;20033;-71
2023/11/09 01:31:57;;;;;;;0.10;0.10;;;;;;;1.01;100.00;95479.88;1034400;28;20561;-72
2023/11/09 01:32:28;;;;;;;0.20;0.18;;;;;;;1.05;100.00;95491.38;1034544;28;20068;-72
2023/11/09 01:32:59;;;;;;;0.93;0.90;;;;;;;1.02;100.00;95486.63;1034716;28;20026;-72
2023/11/09 01:33:30;;;;;;;0.00;0.00;;;;;;;1.01;100.00;95482.47;1038736;28;20260;-72
2023/11/09 01:34:00;;;;;;;0.20;0.20;;;;;;;0.99;100.00;95470.75;1034774;28;20029;-73
2023/11/09 01:34:31;;;;;;;2.63;1.17;;;;;;;1.03;100.00;95480.44;1038776;28;20021;-73
2023/11/09 01:35:02;;;;;;;1.45;0.88;;;;;;;1.02;100.00;95478.88;1030441;28;20663;-73
2023/11/09 01:35:32;;;;;;;0.30;0.30;;;;;;;1.03;100.00;95490.00;1029729;28;20018;-71
2023/11/09 01:36:03;;;;;;;0.30;0.30;;;;;;;0.97;100.00;95480.47;1026586;28;20030;-72
2023/11/09 01:36:34;;;;;;;0.10;0.10;;;;;;;1.00;100.00;95488.59;1026611;28;20023;-74
2023/11/09 01:37:10;;;;;;;0.00;0.00;;;;;;;1.00;100.00;95488.59;1030456;28;20265;-72
2023/11/09 01:37:41;;;;;;;0.57;0.57;;;;;;;1.01;100.00;95484.25;1024263;28;20035;-74
2023/11/09 01:38:11;;;;;;;0.00;0.00;;;;;;;0.97;100.00;95478.69;1031438;28;20284;-72
2023/11/09 01:38:45;;;;;;;0.20;0.20;;;;;;;1.05;100.00;95483.63;1031422;28;20844;-73
2023/11/09 01:39:15;;;;;;;1.48;0.76;;;;;;;1.02;100.00;95489.19;1039103;28;20100;-71
2023/11/09 01:39:46;;;;;;;2.45;1.85;;;;;;;1.06;100.00;95487.78;1038495;28;20030;-72
2023/11/09 01:40:18;;;;;;;0.40;0.40;;;;;;;1.11;100.00;95485.38;1035359;28;20026;-72
2023/11/09 01:40:52;;;;;;;0.20;0.20;;;;;;;1.17;100.00;95483.72;1037888;28;20432;-71
2023/11/09 01:41:22;;;;;;;1.24;1.10;;;;;;;1.16;100.00;95482.94;1035188;28;20273;-72
2023/11/09 01:41:53;;;;;;;0.00;0.00;;;;;;;1.11;100.00;95475.03;1035325;28;20037;-73
2023/11/09 01:42:23;;;;;;;0.25;0.25;;;;;;;1.14;100.00;95478.97;1039067;28;20021;-73
2023/11/09 01:42:54;;;;;;;0.40;0.40;;;;;;;1.16;100.00;95485.53;1034428;28;20029;-73
2023/11/09 01:43:25;;;;;;;0.25;0.25;;;;;;;1.16;100.00;95488.09;1030382;28;20090;-73
2023/11/09 01:43:59;;;;;;;0.00;0.00;;;;;;;1.05;100.00;95464.75;1034641;28;20535;-73
2023/11/09 01:44:30;;;;;;;0.20;0.20;;;;;;;1.21;100.00;95476.34;1039230;28;20052;-73
2023/11/09 01:45:01;;;;;;;0.00;0.00;;;;;;;1.14;100.00;95479.78;1035572;28;20640;-71
2023/11/09 01:45:31;;;;;;;0.00;0.00;;;;;;;1.18;100.00;95477.56;1034605;28;20026;-72
2023/11/09 01:46:02;;;;;;;0.40;0.40;;;;;;;1.13;100.00;95475.59;1036127;28;21093;-73
2023/11/09 01:46:33;;;;;;;0.10;0.10;;;;;;;1.23;100.00;95485.47;1026369;28;20411;-73
2023/11/09 01:47:03;;;;;;;0.00;0.00;;;;;;;1.19;100.00;95486.91;1026545;28;20023;-73
2023/11/09 01:47:34;;;;;;;0.63;0.63;;;;;;;1.18;100.00;95485.31;1028412;28;20034;-73
2023/11/09 01:48:05;;;;;;;0.35;0.35;;;;;;;1.22;100.00;95481.31;1030594;28;20022;-73
2023/11/09 01:48:35;;;;;;;0.28;0.25;;;;;;;1.21;100.00;95484.09;1034590;28;20515;-73
2023/11/09 01:49:06;;;;;;;0.05;0.05;;;;;;;1.27;100.00;95483.25;1030390;28;20258;-73
2023/11/09 01:49:36;;;;;;;0.10;0.10;;;;;;;1.24;100.00;95483.69;1030644;28;20421;-72
2023/11/09 01:50:09;;;;;;;0.00;0.00;;;;;;;1.24;100.00;95488.84;1034739;28;20197;-73
2023/11/09 01:50:39;;;;;;;0.10;0.10;;;;;;;1.14;100.00;95479.78;1030135;28;20035;-73
2023/11/09 01:51:10;;;;;;;0.63;0.63;;;;;;;1.15;100.00;95471.03;1030631;28;20308;-70
2023/11/09 01:51:41;;;;;;;5.72;0.95;;;;;;;1.14;100.00;95479.78;1030377;28;20046;-74
2023/11/09 01:52:11;;;;;;;0.00;0.00;;;;;;;1.23;100.00;95477.72;1030548;28;20030;-71
2023/11/09 01:52:42;;;;;;;0.32;0.32;;;;;;;1.30;100.00;95480.25;1030443;28;20047;-71
2023/11/09 01:53:12;;;;;;;0.10;0.10;;;;;;;1.17;100.00;95463.88;1034484;28;20033;-72
2023/11/09 01:53:43;;;;;;;0.20;0.20;;;;;;;1.27;100.00;95473.72;1034148;28;20030;-73
2023/11/09 01:54:13;;;;;;;0.00;0.00;;;;;;;1.28;100.00;95472.72;1034502;28;20018;-72
2023/11/09 01:54:44;;;;;;;0.00;0.00;;;;;;;1.30;100.00;95472.50;1030305;28;20705;-73
2023/11/09 01:55:17;;;;;;;1.92;0.90;;;;;;;1.28;100.00;95467.56;1025600;28;20123;-72
2023/11/09 01:55:47;;;;;;;0.13;0.13;;;;;;;1.27;100.00;95475.50;1034356;28;20887;-73
2023/11/09 01:56:18;;;;;;;0.47;0.47;;;;;;;1.25;100.00;95474.94;1034243;28;20031;-71
2023/11/09 01:56:49;;;;;;;0.00;0.00;;;;;;;1.21;100.00;95463.41;1038479;28;20100;-73
2023/11/09 01:57:20;;;;;;;0.63;0.50;;;;;;;1.20;100.00;95462.63;1038417;28;20264;-71
2023/11/09 01:57:50;;;;;;;0.20;0.20;;;;;;;1.23;100.00;95471.75;1030445;28;20022;-72
2023/11/09 01:58:21;;;;;;;0.10;0.10;;;;;;;1.24;100.00;95476.75;1027521;28;20044;-70
2023/11/09 01:58:54;;;;;;;0.13;0.13;;;;;;;1.21;100.00;95453.09;1026332;28;20082;-73
2023/11/09 01:59:25;;;;;;;0.00;0.00;;;;;;;1.31;100.00;95463.78;1030492;28;20394;-73
2023/11/09 01:59:55;;;;;;;0.00;0.00;;;;;;;1.30;100.00;95459.59;1031830;28;20275;-70
2023/11/09 02:00:26;;;;;;;0.30;0.30;;;;;;;1.33;100.00;95457.38;1026304;28;20055;-71
2023/11/09 02:00:56;;;;;;;0.00;0.00;;;;;;;1.34;100.00;95463.31;1021447;28;20062;-73
2023/11/09 02:01:27;;;;;;;0.35;0.35;;;;;;;1.30;100.00;95457.00;1024184;28;20026;-71
2023/11/09 02:01:57;;;;;;;0.10;0.10;;;;;;;1.35;100.00;95460.53;1030402;28;20122;-72
2023/11/09 02:02:27;;;;;;;0.93;0.75;;;;;;;1.29;100.00;95448.47;1028846;28;20034;-71
2023/11/09 02:02:59;;;;;;;0.35;0.35;;;;;;;1.36;100.00;95458.75;1026202;28;20094;-71
2023/11/09 02:03:29;;;;;;;1.17;1.08;;;;;;;1.36;100.00;95458.75;1026417;28;20370;-71
2023/11/09 02:03:59;;;;;;;0.30;0.30;;;;;;;1.37;100.00;95455.16;1022472;28;20314;-73
2023/11/09 02:04:30;;;;;;;0.10;0.10;;;;;;;1.41;100.00;95446.00;1025013;28;20569;-73
2023/11/09 02:05:01;;;;;;;0.40;0.35;;;;;;;1.38;100.00;95436.06;1026173;28;20386;-73
2023/11/09 02:05:34;;;;;;;0.38;0.38;;;;;;;1.41;100.00;95440.81;1026459;28;20045;-71
2023/11/09 02:06:05;;;;;;;0.10;0.10;;;;;;;1.44;100.00;95442.94;1018477;29;20032;-73
2023/11/09 02:06:36;;;;;;;1.17;0.88;;;;;;;1.44;100.00;95448.13;1020451;28;20307;-72
2023/11/09 02:07:06;;;;;;;0.45;0.40;;;;;;;1.45;100.00;95452.31;1031047;28;20258;-73
2023/11/09 02:07:37;;;;;;;0.08;0.08;;;;;;;1.41;100.00;95440.81;1034496;28;20017;-73
2023/11/09 02:08:07;;;;;;;0.00;0.00;;;;;;;1.49;100.00;95452.69;1026623;28;20022;-71
2023/11/09 02:08:38;;;;;;;0.93;0.60;;;;;;;1.46;100.00;95438.38;1028742;28;20529;-72
2023/11/09 02:09:09;;;;;;;0.00;0.00;;;;;;;1.49;100.00;95443.13;1022680;28;20031;-74
2023/11/09 02:09:39;;;;;;;0.10;0.10;;;;;;;1.43;100.00;95436.22;1022419;28;20043;-72
2023/11/09 02:10:11;;;;;;;0.52;0.52;;;;;;;1.43;100.00;95431.03;1026177;28;20023;-71
2023/11/09 02:10:42;;;;;;;0.20;0.20;;;;;;;1.50;100.00;95444.69;1025750;28;20113;-75
2023/11/09 02:11:12;;;;;;;0.08;0.08;;;;;;;1.53;100.00;95440.91;1030256;28;20265;-71
2023/11/09 02:11:42;;;;;;;0.00;0.00;;;;;;;1.53;100.00;95441.69;1030089;28;20065;-73
2023/11/09 02:12:13;;;;;;;0.10;0.10;;;;;;;1.55;100.00;95444.06;1026456;28;20030;-73
2023/11/09 02:12:44;;;;;;;0.00;0.00;;;;;;;1.56;100.00;95443.06;1026422;28;20445;-71
2023/11/09 02:13:14;;;;;;;0.00;0.00;;;;;;;1.48;100.00;95431.22;1022458;29;20479;-72
2023/11/09 02:13:45;;;;;;;0.00;0.00;;;;;;;1.58;100.00;95443.66;1025516;28;20057;-72
2023/11/09 02:14:15;;;;;;;0.20;0.20;;;;;;;1.55;100.00;95437.09;1018474;29;20029;-70
2023/11/09 02:14:46;;;;;;;0.20;0.20;;;;;;;1.55;100.00;95429.34;1022439;29;20638;-73
2023/11/09 02:15:17;;;;;;;1.55;1.00;;;;;;;1.62;100.00;95440.41;1030264;28;20026;-72
2023/11/09 02:15:47;;;;;;;0.03;0.03;;;;;;;1.63;100.00;95436.81;1026448;28;20270;-73
2023/11/09 02:16:18;;;;;;;0.10;0.10;;;;;;;1.58;100.00;95435.91;1030417;28;20093;-73
2023/11/09 02:16:48;;;;;;;0.05;0.05;;;;;;;1.61;100.00;95444.00;1027712;28;20026;-72
2023/11/09 02:17:19;;;;;;;0.00;0.00;;;;;;;1.45;100.00;95413.53;1034497;28;20022;-70
2023/11/09 02:17:49;;;;;;;0.10;0.10;;;;;;;1.61;100.00;95445.78;1030289;28;20525;-73
2023/11/09 02:18:21;;;;;;;0.10;0.10;;;;;;;1.54;100.00;95435.53;1026353;28;20030;-73
2023/11/09 02:18:51;;;;;;;0.00;0.00;;;;;;;1.57;100.00;95445.41;1026341;28;20034;-72
2023/11/09 02:19:25;;;;;;;0.20;0.20;;;;;;;1.56;100.00;95443.84;1026451;28;20075;-72
2023/11/09 02:19:55;;;;;;;0.10;0.10;;;;;;;1.55;100.00;95428.56;1022174;29;20039;-71
2023/11/09 02:20:26;;;;;;;0.00;0.00;;;;;;;1.57;100.00;95434.28;1026296;28;20255;-70
2023/11/09 02:20:56;;;;;;;0.00;0.00;;;;;;;1.63;100.00;95447.16;1029729;28;20023;-73
2023/11/09 02:21:27;;;;;;;0.25;0.25;;;;;;;1.62;100.00;95442.22;1034442;28;20514;-73
2023/11/09 02:21:57;;;;;;;0.00;0.00;;;;;;;1.63;100.00;95444.56;1026090;28;20023;-72
2023/11/09 02:22:28;;;;;;;0.00;0.00;;;;;;;1.62;100.00;95440.41;1026553;28;20027;-72
2023/11/09 02:22:59;;;;;;;0.00;0.00;;;;;;;1.62;100.00;95445.59;1029817;28;20089;-73
2023/11/09 02:23:31;;;;;;;0.03;0.03;;;;;;;1.63;100.00;95449.75;1029444;28;20026;-72
2023/11/09 02:24:08;;;;;;;0.00;0.00;;;;;;;1.57;100.00;95427.31;1029802;28;20403;-72
2023/11/09 02:24:39;;;;;;;0.16;0.16;;;;;;;1.56;100.00;95433.50;1030645;28;20450;-73
2023/11/09 02:25:09;;;;;;;1.45;0.30;;;;;;;1.67;100.00;95439.75;1030624;28;20077;-74
2023/11/09 02:25:41;;;;;;;0.00;0.00;;;;;;;1.56;100.00;95423.16;1030500;28;20067;-72